Cheyenne Regional Jerry Olson Field Cheyenne US
ICAO: KCYS
IATA: CYS
Category: Medium
Scheduled Services: Yes

Elevation: 6159 ft
TransAlt. 18000 ft.

Airport Communications:
APP/DEP:124.55
ATIS:134.425
CTAF:118.7
GND:121.9
ARNG OPS:126.2
ANG OPS/COMD POST:22.552
CASPER RDO:122.3
TWR:118.7
UNICOM:122.95

KCYS Zoom In..

If you have problems with the map follow the link
https://www.worldairports.se/pages/airport.php?
ICAO=KCYS

Runways:

(A) RW 09 length 9270 ft width 150 ft
---- / hdg 85

(B) RW 13 length 6690 ft width 150 ft
---- / hdg 125

(C) RW 27 length 9270 ft width 150 ft
ILS 110.10 / hdg 265

(D) RW 31 length 6690 ft width 150 ft
---- / hdg 305

Location; KCYS
Day. 20 / Time. 20.53 Zulu
* Altimeter: 29.53
* Temperature: -03° c. -26.6°f.
* Wind from: 280° Speed 22 kn with Gusts up to 32 kn.
Dewpoint: -17° c.
Visibility: 10 Statute Miles.
Clouds: Broken 6000 ft.

KCYS 202053Z 28022G32KT 10SM BKN060 M03/M17 A2953 RMK AO2 PK WND 27034/2026 SLP054 T10281167 51003


Wind From 280°
Speed 22 kn.

 
 
jpsmedia.com for Web Design worldairports.se 2019   terms of use